createdAt,value
2022-10-21T00:01:01.114Z,0.71
2022-10-21T00:04:57.783Z,0.71
2022-10-21T00:08:58.155Z,0.71
2022-10-21T00:12:58.026Z,0.71
2022-10-21T00:16:58.422Z,0.71
2022-10-21T00:21:02.368Z,0.71
2022-10-21T00:24:58.364Z,0.71
2022-10-21T00:28:57.898Z,0.71
2022-10-21T00:33:02.152Z,0.71
2022-10-21T00:36:58.347Z,0.71
2022-10-21T00:40:57.885Z,0.71
2022-10-21T00:44:57.661Z,0.71
2022-10-21T00:48:58.149Z,0.71
2022-10-21T00:52:58.796Z,0.71
2022-10-21T00:57:01.716Z,8.98
2022-10-21T01:01:00.986Z,8.98
2022-10-21T01:04:58.531Z,8.98
2022-10-21T01:08:58.715Z,8.98
2022-10-21T01:12:58.515Z,8.98
2022-10-21T01:16:59.866Z,8.98
2022-10-21T01:20:57.929Z,8.98
2022-10-21T06:28:58.685Z,8.98
2022-10-21T06:29:18.984Z,8.98
2022-10-21T06:32:57.790Z,8.98
2022-10-21T06:36:57.622Z,8.98
2022-10-21T06:40:58.569Z,8.98
2022-10-21T06:45:00.295Z,8.98
2022-10-21T06:48:57.915Z,8.98
2022-10-21T06:52:58.060Z,8.98
2022-10-21T06:56:58.010Z,8.98
2022-10-21T07:01:01.208Z,8.98
2022-10-21T07:04:58.261Z,8.98
2022-10-21T07:09:21.898Z,8.98
2022-10-21T07:12:57.508Z,8.98
2022-10-21T07:16:57.689Z,8.98
2022-10-21T07:20:57.776Z,8.98
2022-10-21T07:24:57.892Z,8.98
2022-10-21T07:28:58.383Z,8.98
2022-10-21T07:32:58.083Z,8.98
2022-10-21T07:36:57.635Z,8.98
2022-10-21T07:40:58.482Z,8.98
2022-10-21T07:44:57.537Z,8.98
2022-10-21T07:48:58.280Z,8.98
2022-10-21T07:53:17.884Z,8.98
2022-10-21T07:56:57.897Z,8.98
2022-10-21T08:01:00.300Z,8.98
2022-10-21T08:04:57.853Z,8.98
2022-10-21T08:08:58.581Z,8.98
2022-10-21T08:13:00.834Z,8.98
2022-10-21T08:16:58.860Z,8.98
2022-10-21T08:20:58.360Z,8.98
2022-10-21T08:25:04.778Z,8.98
2022-10-21T08:32:59.141Z,8.98
2022-10-21T08:36:58.324Z,8.98
2022-10-21T08:40:58.988Z,8.98
2022-10-21T08:44:57.703Z,8.98
2022-10-21T08:48:57.820Z,8.98
2022-10-21T08:52:58.348Z,8.98
2022-10-21T08:57:04.786Z,8.98
2022-10-21T09:01:02.468Z,8.98
2022-10-21T09:04:57.934Z,8.98
2022-10-21T09:08:57.956Z,8.98
2022-10-21T09:12:58.443Z,8.98
2022-10-21T09:16:57.530Z,8.98
2022-10-21T09:21:01.655Z,8.98
2022-10-21T09:24:57.987Z,8.98
2022-10-21T09:28:58.205Z,8.98
2022-10-21T09:32:59.056Z,8.98
2022-10-21T09:36:58.438Z,8.98
2022-10-21T09:40:57.973Z,8.98
2022-10-21T09:44:58.221Z,8.98
2022-10-21T09:50:13.255Z,8.98
2022-10-21T09:52:57.887Z,8.98
2022-10-21T09:56:57.623Z,8.98
2022-10-21T10:01:04.489Z,8.98
2022-10-21T10:04:58.383Z,8.98
2022-10-21T10:12:58.663Z,8.98
2022-10-21T10:16:58.284Z,8.98
2022-10-21T10:20:58.501Z,8.98
2022-10-21T10:24:58.377Z,8.98
2022-10-21T10:28:58.042Z,8.98
2022-10-21T10:32:58.874Z,8.98
2022-10-21T10:37:01.263Z,12.11
2022-10-21T10:40:58.664Z,12.11
2022-10-21T10:44:57.873Z,12.11
2022-10-21T10:48:57.730Z,12.11
2022-10-21T10:52:58.492Z,12.11
2022-10-21T10:56:57.512Z,12.11
2022-10-21T11:01:01.273Z,12.11
2022-10-21T11:04:57.958Z,12.11
2022-10-21T11:08:58.783Z,12.11
2022-10-21T11:12:57.622Z,12.11
2022-10-21T11:17:21.844Z,12.11
2022-10-21T11:20:58.015Z,12.11
2022-10-21T11:24:58.220Z,12.11
2022-10-21T11:28:59.792Z,12.11
2022-10-21T11:33:08.538Z,12.11
2022-10-21T11:36:58.212Z,12.11
2022-10-21T11:40:58.055Z,19.31
2022-10-21T11:45:03.311Z,2.81
2022-10-21T11:48:57.938Z,0.1
2022-10-21T11:52:57.534Z,0.06
2022-10-21T11:56:58.438Z,0.06
2022-10-21T12:00:58.695Z,0.05
2022-10-21T12:04:58.018Z,0.05
2022-10-21T12:09:03.903Z,0.04
2022-10-21T12:12:57.670Z,0.04
2022-10-21T12:16:58.138Z,0.04
2022-10-21T12:20:58.190Z,0.04
2022-10-21T12:24:57.825Z,0.04
2022-10-21T12:28:57.590Z,0.04
2022-10-21T12:32:58.212Z,0.04
2022-10-21T12:36:58.449Z,0.04
2022-10-21T12:40:57.866Z,0.04
2022-10-21T12:44:58.435Z,0.04
2022-10-21T12:49:07.981Z,0.04
2022-10-21T12:53:27.359Z,0.04
2022-10-21T12:56:57.749Z,0.04
2022-10-21T13:01:00.472Z,0.04
2022-10-21T13:04:57.790Z,0.04
2022-10-21T13:08:58.552Z,0.04
2022-10-21T13:12:58.058Z,0.04
2022-10-21T13:16:58.056Z,0.04
2022-10-21T13:20:58.184Z,0.04
2022-10-21T13:24:58.261Z,0.04
2022-10-21T13:28:58.438Z,0.04
2022-10-21T13:32:58.268Z,0.04
2022-10-21T13:36:58.551Z,0.04
2022-10-21T13:40:57.947Z,0.04
2022-10-21T13:44:58.256Z,0.04
2022-10-21T13:48:57.906Z,0.04
2022-10-21T13:52:57.537Z,0.04
2022-10-21T13:56:57.767Z,0.04
2022-10-21T14:01:10.362Z,0.04
2022-10-21T14:05:02.732Z,0.04
2022-10-21T14:08:58.366Z,0.04
2022-10-21T14:16:57.517Z,0.04
2022-10-21T14:20:58.374Z,0.04
2022-10-21T14:24:57.911Z,0.04
2022-10-21T14:28:57.507Z,0.04
2022-10-21T14:32:57.829Z,0.04
2022-10-21T14:36:58.320Z,0.04
2022-10-21T14:40:58.288Z,0.04
2022-10-21T14:44:57.649Z,0.04
2022-10-21T14:48:57.729Z,0.04
2022-10-21T14:52:58.253Z,0.04
2022-10-21T14:56:57.479Z,0.04
2022-10-21T15:01:04.295Z,0.04
2022-10-21T15:04:58.307Z,0.04
2022-10-21T15:08:58.393Z,0.04
2022-10-21T15:12:58.249Z,0.04
2022-10-21T15:16:57.863Z,0.04
2022-10-21T15:20:58.417Z,0.04
2022-10-21T15:24:57.381Z,0.04
2022-10-21T15:28:57.932Z,0.04
2022-10-21T15:33:04.012Z,0.04
2022-10-21T15:36:58.498Z,0.04
2022-10-21T15:40:58.199Z,0.04
2022-10-21T15:44:58.003Z,0.04
2022-10-21T15:48:58.366Z,0.04
2022-10-21T15:52:57.642Z,0.04
2022-10-21T15:56:57.976Z,0.03
2022-10-21T16:01:04.882Z,0.03
2022-10-21T16:04:57.581Z,0.04
2022-10-21T16:08:58.090Z,0.04
2022-10-21T16:12:58.051Z,0.04
2022-10-21T16:16:57.469Z,0.03
2022-10-21T16:20:58.278Z,0.03
2022-10-21T16:24:58.364Z,0.03
2022-10-21T16:28:57.529Z,0.03
2022-10-21T16:32:58.193Z,0.04
2022-10-21T16:36:57.838Z,0.04
2022-10-21T16:40:58.453Z,0.03
2022-10-21T16:44:57.549Z,0.03
2022-10-21T16:48:57.913Z,0.03
2022-10-21T16:52:58.325Z,0.03
2022-10-21T16:56:57.918Z,0.03
2022-10-21T17:01:00.696Z,0.03
2022-10-21T17:04:58.466Z,0.03
2022-10-21T17:08:58.288Z,0.03
2022-10-21T17:12:58.382Z,0.03
2022-10-21T17:16:57.593Z,0.03
2022-10-21T17:20:58.123Z,0.03
2022-10-21T17:24:58.085Z,0.03
2022-10-21T17:28:58.354Z,0.03
2022-10-21T17:32:57.585Z,0.03
2022-10-21T17:36:57.563Z,0.03
2022-10-21T17:40:58.202Z,0.03
2022-10-21T17:44:57.410Z,0.03
2022-10-21T17:48:58.577Z,0.03
2022-10-21T17:52:57.883Z,0.03
2022-10-21T17:56:57.505Z,0.03
2022-10-21T18:01:07.274Z,0.03
2022-10-21T18:04:57.529Z,0.03
2022-10-21T18:08:57.681Z,0.03
2022-10-21T18:13:01.549Z,0.03
2022-10-21T18:16:58.080Z,0.03
2022-10-21T18:20:58.400Z,0.03
2022-10-21T18:24:58.146Z,0.03
2022-10-21T18:28:58.454Z,0.03
2022-10-21T18:33:00.401Z,0.03
2022-10-21T18:36:57.605Z,0.03
2022-10-21T18:41:20.062Z,0.03
2022-10-21T18:44:58.267Z,0.03
2022-10-21T18:48:58.157Z,0.03
2022-10-21T18:52:58.296Z,0.03
2022-10-21T18:56:58.409Z,0.03
2022-10-21T19:01:01.040Z,0.04
2022-10-21T19:05:01.268Z,0.03
2022-10-21T19:08:58.602Z,0.04
2022-10-21T19:13:03.569Z,0.03
2022-10-21T19:16:58.271Z,0.03
2022-10-21T19:20:58.138Z,0.04
2022-10-21T19:24:57.697Z,0.04
2022-10-21T19:28:58.551Z,0.04
2022-10-21T19:32:57.771Z,0.04
2022-10-21T19:36:58.040Z,0.04
2022-10-21T19:40:58.014Z,0.04
2022-10-21T19:44:58.445Z,0.04
2022-10-21T19:48:57.836Z,0.04
2022-10-21T19:52:57.807Z,0.04
2022-10-21T19:57:03.461Z,0.04
2022-10-21T20:01:00.788Z,0.04
2022-10-21T20:04:58.660Z,0.04
2022-10-21T20:08:58.421Z,0.04
2022-10-21T20:12:57.948Z,0.04
2022-10-21T20:16:58.135Z,0.04
2022-10-21T20:20:58.447Z,0.04
2022-10-21T20:24:58.440Z,0.04
2022-10-21T20:28:57.714Z,0.04
2022-10-21T20:32:58.080Z,0.04
2022-10-21T20:36:57.726Z,0.04
2022-10-21T20:40:58.249Z,0.04
2022-10-21T20:44:58.368Z,0.04
2022-10-21T20:48:57.581Z,0.04
2022-10-21T20:52:57.839Z,0.04
2022-10-21T20:56:58.357Z,0.04
2022-10-21T21:00:58.571Z,0.04
2022-10-21T21:04:58.492Z,0.04
2022-10-21T21:09:44.048Z,0.04
2022-10-21T21:12:58.626Z,0.04
2022-10-21T21:16:58.264Z,0.04
2022-10-21T21:20:58.195Z,0.04
2022-10-21T21:24:58.239Z,0.04
2022-10-21T21:28:59.001Z,0.04
2022-10-21T21:32:58.339Z,0.04
2022-10-21T21:36:57.726Z,0.04
2022-10-21T21:40:58.560Z,0.04
2022-10-21T21:44:58.210Z,0.04
2022-10-21T21:49:05.130Z,0.04
2022-10-21T21:52:58.591Z,0.04
2022-10-21T22:01:04.949Z,0.04
2022-10-21T22:04:58.194Z,0.04
2022-10-21T22:08:58.353Z,0.04
2022-10-21T22:13:00.694Z,0.04
2022-10-21T22:16:58.206Z,0.04
2022-10-21T22:20:58.234Z,0.04
2022-10-21T22:24:58.490Z,0.04
2022-10-21T22:28:58.186Z,0.04
2022-10-21T22:32:58.177Z,0.04
2022-10-21T22:36:58.542Z,0.04
2022-10-21T22:40:58.443Z,0.04
2022-10-21T22:44:58.179Z,0.04
2022-10-21T22:48:57.557Z,0.04
2022-10-21T22:52:58.516Z,0.04
2022-10-21T22:56:57.787Z,0.04
2022-10-21T23:01:00.702Z,0.04
2022-10-21T23:04:58.393Z,0.04
2022-10-21T23:08:58.752Z,0.04
2022-10-21T23:12:58.628Z,0.05
2022-10-21T23:16:58.208Z,0.05
2022-10-21T23:20:58.279Z,0.05
2022-10-21T23:24:58.082Z,0.05
2022-10-21T23:28:58.110Z,0.04
2022-10-21T23:32:58.645Z,0.04
2022-10-21T23:36:57.890Z,0.04
2022-10-21T23:40:57.948Z,0.04
2022-10-21T23:44:58.343Z,0.04
2022-10-21T23:48:58.197Z,0.04
2022-10-21T23:52:57.775Z,0.04
2022-10-21T23:56:57.687Z,0.04
